Time;durP1;ratioP1;P1;durP2;ratioP2;P2;SDS_P1;SDS_P2;PMS_P1;PMS_P2;Temp;Humidity;BMP_temperature;BMP_pressure;BME280_temperature;BME280_humidity;BME280_pressure;Samples;Min_cycle;Max_cycle;Signal;HPM_P1;HPM_P2
2022/12/07 00:01:13;;;;;;;780.88;247.38;;;230.90;2252.80;;;;;;4973975;28;20039;-59
2022/12/07 00:03:41;;;;;;;676.58;216.07;;;230.90;2252.80;;;;;;4973700;28;20026;-59
2022/12/07 00:06:09;;;;;;;714.25;238.30;;;230.70;2252.80;;;;;;4974014;28;20062;-70
2022/12/07 00:08:35;;;;;;;772.22;245.90;;;230.70;2252.80;;;;;;4973950;28;20081;-70
2022/12/07 00:11:06;;;;;;;875.20;285.13;;;230.70;2252.80;;;;;;4973774;28;20062;-70
2022/12/07 00:13:32;;;;;;;683.53;225.80;;;230.80;2252.80;;;;;;4973786;28;20466;-71
2022/12/07 00:16:03;;;;;;;796.58;229.52;;;230.90;2252.80;;;;;;4974014;28;20023;-69
2022/12/07 00:18:29;;;;;;;728.28;221.73;;;230.70;2252.80;;;;;;4973600;28;20041;-67
2022/12/07 00:21:01;;;;;;;415.73;155.20;;;230.90;2252.80;;;;;;4973822;28;20023;-73
2022/12/07 00:23:26;;;;;;;533.55;167.43;;;230.90;2252.80;;;;;;4973821;28;20023;-58
2022/12/07 00:25:52;;;;;;;512.40;184.60;;;231.10;2252.80;;;;;;4973360;28;20556;-59
2022/12/07 00:28:17;;;;;;;586.65;187.93;;;231.00;2252.80;;;;;;4973096;28;20037;-63
2022/12/07 00:30:43;;;;;;;652.78;198.82;;;231.00;2252.80;;;;;;4973583;28;20369;-59
2022/12/07 00:33:09;;;;;;;571.63;178.15;;;231.00;2252.80;;;;;;4973517;28;20027;-67
2022/12/07 00:35:34;;;;;;;786.35;250.32;;;231.10;2252.80;;;;;;4973394;28;20077;-71
2022/12/07 00:38:00;;;;;;;736.80;218.43;;;231.00;2252.80;;;;;;4973356;28;20359;-71
2022/12/07 00:40:26;;;;;;;747.47;206.07;;;231.00;2252.80;;;;;;4973460;28;20098;-65
2022/12/07 00:42:51;;;;;;;520.63;164.35;;;231.00;2252.80;;;;;;4973214;28;20370;-60
2022/12/07 00:45:17;;;;;;;546.70;181.07;;;231.10;2252.80;;;;;;4973555;28;20033;-72
2022/12/07 00:47:43;;;;;;;677.45;210.02;;;231.00;2252.80;;;;;;4973115;28;20118;-59
2022/12/07 00:50:08;;;;;;;667.08;206.93;;;231.10;2252.80;;;;;;4973205;28;20027;-64
2022/12/07 00:52:34;;;;;;;671.65;190.77;;;231.00;2252.80;;;;;;4973196;28;20027;-72
2022/12/07 00:55:00;;;;;;;635.90;179.80;;;230.90;2252.80;;;;;;4973055;28;20473;-60
2022/12/07 00:57:25;;;;;;;506.83;152.48;;;230.80;2252.80;;;;;;4972980;28;20101;-73
2022/12/07 00:59:55;;;;;;;557.97;160.35;;;230.80;2252.80;;;;;;4973074;28;20030;-73
2022/12/07 01:02:21;;;;;;;331.70;115.05;;;230.80;2252.80;;;;;;4972938;28;20034;-73
2022/12/07 01:04:47;;;;;;;510.77;155.73;;;230.90;2252.80;;;;;;4972911;28;20059;-74
2022/12/07 01:07:12;;;;;;;275.85;96.28;;;230.70;2252.80;;;;;;4972635;28;20081;-70
2022/12/07 01:09:38;;;;;;;475.67;139.77;;;230.70;2252.80;;;;;;4972944;28;20063;-71
2022/12/07 01:12:04;;;;;;;344.30;118.68;;;230.70;2252.80;;;;;;4972803;28;20035;-72
2022/12/07 01:14:30;;;;;;;552.10;154.88;;;230.70;2252.80;;;;;;4972815;28;20069;-59
2022/12/07 01:16:55;;;;;;;408.17;117.38;;;230.80;2252.80;;;;;;4972886;28;20031;-72
2022/12/07 01:19:21;;;;;;;434.52;130.30;;;230.60;2252.80;;;;;;4972663;28;20087;-63
2022/12/07 01:21:46;;;;;;;478.48;133.02;;;230.60;2252.80;;;;;;4972676;28;20030;-72
2022/12/07 01:24:12;;;;;;;489.75;139.60;;;230.70;2252.80;;;;;;4972394;28;20035;-69
2022/12/07 01:26:38;;;;;;;229.90;92.40;;;230.70;2252.80;;;;;;4972518;28;20904;-72
2022/12/07 01:29:04;;;;;;;624.35;169.30;;;230.70;2252.80;;;;;;4972646;28;20019;-58
2022/12/07 01:31:30;;;;;;;445.33;128.40;;;230.60;2252.80;;;;;;4972275;28;20034;-71
2022/12/07 01:33:58;;;;;;;491.23;138.40;;;230.60;2252.80;;;;;;4972605;28;20023;-58
2022/12/07 01:36:30;;;;;;;713.63;185.40;;;230.60;2252.80;;;;;;4972333;28;20026;-71
2022/12/07 01:38:58;;;;;;;456.85;135.50;;;230.50;2252.80;;;;;;4972317;28;20057;-71
2022/12/07 01:41:28;;;;;;;672.15;231.88;;;230.50;2252.80;;;;;;4972269;28;20478;-71
2022/12/07 01:44:19;;;;;;;485.50;152.75;;;230.70;2252.80;;;;;;4972283;28;20058;-59
2022/12/07 01:47:00;;;;;;;586.50;171.80;;;230.70;2252.80;;;;;;4972137;28;20042;-70
2022/12/07 01:49:38;;;;;;;481.75;132.70;;;230.60;2252.80;;;;;;4972106;28;20109;-70
2022/12/07 01:52:14;;;;;;;468.27;128.07;;;230.70;2252.80;;;;;;4972390;28;20079;-62
2022/12/07 01:54:40;;;;;;;486.08;148.40;;;230.80;2252.80;;;;;;4971953;28;20027;-71
2022/12/07 01:57:08;;;;;;;551.75;157.60;;;230.70;2252.80;;;;;;4971975;28;20051;-71
2022/12/07 01:59:34;;;;;;;665.85;198.82;;;230.70;2252.80;;;;;;4972051;28;20031;-58
2022/12/07 02:02:05;;;;;;;550.97;163.43;;;230.60;2252.80;;;;;;4971851;28;20026;-60
2022/12/07 02:04:31;;;;;;;586.45;157.50;;;230.50;2252.80;;;;;;4971585;28;20026;-71
2022/12/07 02:06:57;;;;;;;489.98;150.25;;;230.40;2252.80;;;;;;4971933;28;20046;-71
2022/12/07 02:09:23;;;;;;;603.15;163.43;;;230.40;2252.80;;;;;;4971616;28;20590;-59
2022/12/07 02:11:50;;;;;;;625.95;182.93;;;230.40;2252.80;;;;;;4971944;28;20038;-58
2022/12/07 02:14:16;;;;;;;573.63;169.05;;;230.40;2252.80;;;;;;4971845;28;20019;-70
2022/12/07 02:16:59;;;;;;;427.45;130.43;;;230.40;2252.80;;;;;;4971566;28;20082;-71
2022/12/07 02:19:53;;;;;;;326.45;124.55;;;230.50;2252.80;;;;;;4954292;28;20377;-70
2022/12/07 02:22:47;;;;;;;539.13;157.20;;;230.50;2252.80;;;;;;4971936;28;20114;-57
2022/12/07 02:25:31;;;;;;;315.70;124.38;;;230.60;2252.80;;;;;;4971273;28;20031;-58
2022/12/07 02:28:09;;;;;;;480.33;153.68;;;230.60;2252.80;;;;;;4971851;28;20035;-57
2022/12/07 02:30:46;;;;;;;480.85;162.32;;;230.60;2252.80;;;;;;4971614;28;20023;-70
2022/12/07 02:33:23;;;;;;;481.33;169.85;;;230.60;2252.80;;;;;;4971364;28;20038;-71
2022/12/07 02:36:14;;;;;;;650.88;188.02;;;230.50;2252.80;;;;;;4971278;28;20038;-57
2022/12/07 02:38:43;;;;;;;614.25;182.80;;;230.60;2252.80;;;;;;4971290;28;20490;-68
2022/12/07 02:41:30;;;;;;;427.40;155.18;;;230.70;2252.80;;;;;;4971233;28;20031;-57
2022/12/07 02:44:01;;;;;;;488.73;154.15;;;230.70;2252.80;;;;;;4971476;28;20037;-57
2022/12/07 02:46:52;;;;;;;536.38;174.40;;;230.80;2252.80;;;;;;4971194;28;20042;-67
2022/12/07 02:49:21;;;;;;;615.05;169.15;;;230.80;2252.80;;;;;;4971516;28;20077;-66
2022/12/07 02:51:47;;;;;;;545.38;167.05;;;230.80;2252.80;;;;;;4974048;28;20035;-67
2022/12/07 02:54:15;;;;;;;367.38;117.38;;;230.80;2252.80;;;;;;4977603;28;20089;-59
2022/12/07 02:56:44;;;;;;;742.75;207.35;;;230.70;2252.80;;;;;;4977425;28;20043;-67
2022/12/07 02:59:47;;;;;;;511.02;153.68;;;230.70;2252.80;;;;;;4977503;28;20030;-56
2022/12/07 03:02:44;;;;;;;520.40;152.75;;;230.70;2252.80;;;;;;4977703;28;20085;-57
2022/12/07 03:05:43;;;;;;;485.35;154.73;;;230.60;2252.80;;;;;;4977064;28;20473;-57
2022/12/07 03:08:50;;;;;;;433.33;127.55;;;230.70;2252.80;;;;;;4977400;28;20528;-67
2022/12/07 03:11:47;;;;;;;671.35;247.43;;;230.80;2252.80;;;;;;4939544;28;20081;-68
2022/12/07 03:14:29;;;;;;;670.90;196.20;;;230.80;2252.80;;;;;;4899018;29;20041;-59
2022/12/07 03:17:04;;;;;;;569.47;171.50;;;230.70;2252.80;;;;;;4899098;29;20032;-68
2022/12/07 03:19:32;;;;;;;548.33;153.77;;;230.80;2252.80;;;;;;4898738;29;20037;-57
2022/12/07 03:22:03;;;;;;;471.70;126.35;;;230.80;2252.80;;;;;;4898884;29;20044;-59
2022/12/07 03:24:34;;;;;;;534.22;152.07;;;230.70;2252.80;;;;;;4898867;29;20068;-65
2022/12/07 03:27:13;;;;;;;450.92;134.93;;;230.60;2252.80;;;;;;4898745;29;20036;-70
2022/12/07 03:29:45;;;;;;;564.15;158.00;;;230.60;2252.80;;;;;;4898789;29;20033;-67
2022/12/07 03:32:40;;;;;;;439.65;130.25;;;230.60;2252.80;;;;;;4898787;29;20036;-70
2022/12/07 03:35:18;;;;;;;466.48;136.45;;;230.50;2252.80;;;;;;4898854;29;20115;-70
2022/12/07 03:38:00;;;;;;;509.85;173.80;;;230.70;2252.80;;;;;;4898810;29;20045;-68
2022/12/07 03:40:40;;;;;;;496.17;166.43;;;230.60;2252.80;;;;;;4898802;29;20024;-69
2022/12/07 03:43:06;;;;;;;372.80;118.55;;;230.60;2252.80;;;;;;4898884;29;20028;-69
2022/12/07 03:45:41;;;;;;;410.70;127.63;;;230.70;2252.80;;;;;;4898577;29;20591;-70
2022/12/07 03:48:28;;;;;;;489.88;150.15;;;230.70;2252.80;;;;;;4898764;29;20109;-57
2022/12/07 03:51:20;;;;;;;568.08;163.05;;;230.70;2252.80;;;;;;4932320;28;20410;-66
2022/12/07 03:53:53;;;;;;;505.13;147.27;;;230.70;2252.80;;;;;;4977301;28;20023;-70
2022/12/07 03:56:20;;;;;;;585.22;178.07;;;230.80;2252.80;;;;;;4976845;28;20170;-57
2022/12/07 03:58:46;;;;;;;427.30;134.15;;;230.80;2252.80;;;;;;4977092;28;20027;-70
2022/12/07 04:01:12;;;;;;;566.80;162.23;;;230.80;2252.80;;;;;;4977005;28;20035;-68
2022/12/07 04:03:38;;;;;;;645.97;216.80;;;230.80;2252.80;;;;;;4974188;28;20023;-56
2022/12/07 04:06:04;;;;;;;509.63;140.35;;;230.80;2252.80;;;;;;4973679;28;20046;-64
2022/12/07 04:08:29;;;;;;;426.35;138.68;;;230.70;2252.80;;;;;;4973753;28;20027;-56
2022/12/07 04:10:55;;;;;;;538.63;186.90;;;230.70;2252.80;;;;;;4974169;28;20023;-57
2022/12/07 04:13:21;;;;;;;467.92;145.25;;;230.70;2252.80;;;;;;4973867;28;20102;-66
2022/12/07 04:15:46;;;;;;;422.02;126.60;;;230.60;2252.80;;;;;;4973894;28;20030;-66
2022/12/07 04:18:12;;;;;;;594.80;162.52;;;230.60;2252.80;;;;;;4973770;28;20051;-68
2022/12/07 04:20:38;;;;;;;505.88;155.82;;;230.60;2252.80;;;;;;4973657;28;20656;-66
2022/12/07 04:23:03;;;;;;;536.83;155.18;;;230.70;2252.80;;;;;;4973713;28;20354;-68
2022/12/07 04:25:29;;;;;;;573.95;153.80;;;230.70;2252.80;;;;;;4973497;28;20033;-65
2022/12/07 04:27:55;;;;;;;495.13;144.25;;;230.60;2252.80;;;;;;4973791;28;20066;-66
2022/12/07 04:30:20;;;;;;;479.13;145.20;;;230.60;2252.80;;;;;;4973492;28;20034;-69
2022/12/07 04:32:46;;;;;;;468.75;134.15;;;230.60;2252.80;;;;;;4973684;28;20428;-68
2022/12/07 04:35:12;;;;;;;597.13;189.40;;;230.70;2252.80;;;;;;4973018;28;20393;-57
2022/12/07 04:37:39;;;;;;;564.22;164.02;;;230.60;2252.80;;;;;;4973551;28;20037;-58
2022/12/07 04:40:10;;;;;;;492.95;151.40;;;230.50;2252.80;;;;;;4973540;28;20031;-68
2022/12/07 04:42:36;;;;;;;422.48;130.82;;;230.40;2252.80;;;;;;4973709;28;20027;-67
2022/12/07 04:45:03;;;;;;;379.42;119.88;;;230.50;2252.80;;;;;;4973407;28;20034;-57
2022/12/07 04:47:28;;;;;;;457.48;131.88;;;230.60;2252.80;;;;;;4973374;28;20078;-58
2022/12/07 04:49:54;;;;;;;478.17;152.35;;;230.70;2252.80;;;;;;4973215;28;20026;-68
2022/12/07 04:52:20;;;;;;;842.45;313.65;;;230.60;2252.80;;;;;;4973088;28;20106;-68
2022/12/07 04:54:46;;;;;;;458.23;152.73;;;230.50;2252.80;;;;;;4973150;28;20029;-68
2022/12/07 04:57:12;;;;;;;294.45;132.80;;;230.60;2252.80;;;;;;4972825;28;20046;-68
2022/12/07 04:59:37;;;;;;;430.48;153.02;;;230.70;2252.80;;;;;;4973239;28;20473;-68
2022/12/07 05:02:03;;;;;;;457.85;149.45;;;230.70;2252.80;;;;;;4972988;28;20050;-58
2022/12/07 05:04:29;;;;;;;280.05;106.85;;;230.70;2252.80;;;;;;4972758;28;20057;-57
2022/12/07 05:06:54;;;;;;;403.92;130.73;;;230.70;2252.80;;;;;;4972787;28;20043;-69
2022/12/07 05:09:20;;;;;;;480.30;160.38;;;230.70;2252.80;;;;;;4972851;28;20052;-66
2022/12/07 05:11:46;;;;;;;254.38;110.07;;;230.70;2252.80;;;;;;4973046;28;20385;-68
2022/12/07 05:14:18;;;;;;;462.50;157.05;;;230.70;2252.80;;;;;;4972530;28;20073;-68
2022/12/07 05:16:46;;;;;;;578.03;204.32;;;230.80;2252.80;;;;;;4972838;28;20026;-67
2022/12/07 05:19:12;;;;;;;543.67;181.15;;;230.90;2252.80;;;;;;4972543;28;20035;-66
2022/12/07 05:21:38;;;;;;;386.42;138.43;;;230.80;2252.80;;;;;;4972751;28;20042;-60
2022/12/07 05:24:05;;;;;;;361.85;125.97;;;230.80;2252.80;;;;;;4972605;28;20051;-67
2022/12/07 05:26:31;;;;;;;480.10;152.82;;;230.70;2252.80;;;;;;4972464;28;20034;-66
2022/12/07 05:28:57;;;;;;;458.08;144.73;;;230.80;2252.80;;;;;;4972661;28;20081;-68
2022/12/07 05:31:24;;;;;;;428.38;124.57;;;230.70;2252.80;;;;;;4972333;28;20026;-60
2022/12/07 05:33:51;;;;;;;197.70;83.60;;;230.60;2252.80;;;;;;4972474;28;20071;-61
2022/12/07 05:36:16;;;;;;;403.70;133.85;;;230.70;2252.80;;;;;;4972379;28;20035;-66
2022/12/07 05:38:42;;;;;;;408.63;137.82;;;230.70;2252.80;;;;;;4972101;28;20035;-68
2022/12/07 05:42:11;;;;;;;414.95;149.70;;;230.80;2252.80;;;;;;4972758;28;20792;-67
2022/12/07 05:43:57;;;;;;;335.25;131.35;;;230.70;2252.80;;;;;;4972272;28;20050;-68
2022/12/07 05:46:23;;;;;;;496.40;176.52;;;230.80;2252.80;;;;;;4971805;28;20490;-59
2022/12/07 05:48:48;;;;;;;451.48;148.93;;;230.70;2252.80;;;;;;4972136;28;20038;-58
2022/12/07 05:51:14;;;;;;;340.02;128.18;;;230.70;2252.80;;;;;;4972073;28;20037;-70
2022/12/07 05:53:40;;;;;;;337.23;117.13;;;230.70;2252.80;;;;;;4972171;28;20022;-68
2022/12/07 05:56:06;;;;;;;488.98;161.95;;;230.70;2252.80;;;;;;4971906;28;20050;-69
2022/12/07 06:01:16;;;;;;;252.40;110.00;;;230.70;2252.80;;;;;;4972410;28;20037;-69
2022/12/07 06:03:41;;;;;;;340.10;128.93;;;230.70;2252.80;;;;;;4971674;28;20389;-69
2022/12/07 06:06:07;;;;;;;214.68;95.20;;;230.80;2252.80;;;;;;4971568;28;20084;-69
2022/12/07 06:08:33;;;;;;;492.15;160.32;;;230.70;2252.80;;;;;;4971885;28;20492;-68
2022/12/07 06:13:47;;;;;;;284.77;107.65;;;230.80;2252.80;;;;;;4893750;29;20072;-69
2022/12/07 06:16:13;;;;;;;266.02;106.78;;;230.90;2252.80;;;;;;4893229;29;20037;-68
2022/12/07 06:18:39;;;;;;;465.33;176.40;;;230.80;2252.80;;;;;;4893093;29;20373;-57
2022/12/07 06:21:04;;;;;;;256.00;107.60;;;230.80;2252.80;;;;;;4893296;29;20412;-65
2022/12/07 06:23:30;;;;;;;363.08;132.98;;;230.80;2252.80;;;;;;4893302;29;20037;-66
2022/12/07 06:25:56;;;;;;;232.02;96.10;;;230.80;2252.80;;;;;;4892642;29;20043;-68
2022/12/07 06:28:21;;;;;;;301.35;102.97;;;230.80;2252.80;;;;;;4893108;29;20032;-68
2022/12/07 06:30:47;;;;;;;195.27;87.38;;;230.80;2252.80;;;;;;4893557;29;20036;-67
2022/12/07 06:33:13;;;;;;;193.48;95.75;;;230.90;2252.80;;;;;;4892949;29;20036;-64
2022/12/07 06:35:38;;;;;;;219.77;104.10;;;230.90;2252.80;;;;;;4893063;29;20084;-58
2022/12/07 06:38:04;;;;;;;303.05;123.05;;;230.90;2252.80;;;;;;4893268;29;20041;-70
2022/12/07 06:40:29;;;;;;;173.00;81.38;;;230.90;2252.80;;;;;;4892895;29;20527;-57
2022/12/07 06:42:55;;;;;;;252.13;114.95;;;230.90;2252.80;;;;;;4892999;29;20496;-69
2022/12/07 06:45:21;;;;;;;484.23;195.02;;;230.90;2252.80;;;;;;4892827;29;20149;-69
2022/12/07 06:47:46;;;;;;;227.18;125.82;;;231.00;2252.80;;;;;;4893056;29;20421;-70
2022/12/07 06:50:12;;;;;;;399.77;153.70;;;230.90;2252.80;;;;;;4913901;28;20046;-68
2022/12/07 06:52:38;;;;;;;191.13;100.03;;;230.90;2252.80;;;;;;4971509;28;20027;-68
2022/12/07 06:55:04;;;;;;;208.98;104.00;;;230.90;2252.80;;;;;;4971325;28;20497;-69
2022/12/07 06:57:29;;;;;;;254.93;141.10;;;230.90;2252.80;;;;;;4970872;28;20086;-57
2022/12/07 06:59:55;;;;;;;207.25;110.25;;;230.90;2252.80;;;;;;4971275;28;20101;-66
2022/12/07 07:02:21;;;;;;;110.47;65.95;;;230.90;2252.80;;;;;;4971154;28;20049;-68
2022/12/07 07:04:46;;;;;;;145.70;78.30;;;230.90;2252.80;;;;;;4971277;28;20015;-69
2022/12/07 07:07:12;;;;;;;212.57;136.13;;;230.90;2252.80;;;;;;4970661;28;20109;-58
2022/12/07 07:09:38;;;;;;;148.52;85.90;;;230.80;2252.80;;;;;;4971017;28;20055;-69
2022/12/07 07:12:03;;;;;;;138.63;75.43;;;230.80;2252.80;;;;;;4970961;28;20034;-57
2022/12/07 07:14:29;;;;;;;158.10;87.30;;;230.70;2252.80;;;;;;4970899;28;20031;-67
2022/12/07 07:16:55;;;;;;;158.98;83.63;;;230.80;2252.80;;;;;;4971096;28;20074;-69
2022/12/07 07:19:21;;;;;;;162.05;84.97;;;230.90;2252.80;;;;;;4970963;28;20023;-71
2022/12/07 07:21:46;;;;;;;193.20;109.15;;;230.80;2252.80;;;;;;4970975;28;20025;-68
2022/12/07 07:24:12;;;;;;;440.50;273.75;;;230.80;2252.80;;;;;;4970903;28;20466;-57
2022/12/07 07:26:38;;;;;;;116.38;71.40;;;230.90;2252.80;;;;;;4970900;28;20473;-68
2022/12/07 07:29:03;;;;;;;195.88;115.00;;;230.70;2252.80;;;;;;4970850;28;20026;-57
2022/12/07 07:31:29;;;;;;;162.75;98.18;;;230.70;2252.80;;;;;;4970930;28;20115;-64
2022/12/07 07:33:55;;;;;;;170.68;98.10;;;230.70;2252.80;;;;;;4970912;28;20027;-56
2022/12/07 07:36:20;;;;;;;142.27;99.97;;;230.70;2252.80;;;;;;4973089;28;20077;-67
2022/12/07 07:38:46;;;;;;;136.38;79.85;;;230.70;2252.80;;;;;;4975958;28;20079;-66
2022/12/07 07:41:12;;;;;;;115.80;63.38;;;230.70;2252.80;;;;;;4977188;28;20405;-65
2022/12/07 07:43:37;;;;;;;148.55;93.18;;;230.60;2252.80;;;;;;4974585;28;20033;-67
2022/12/07 07:46:03;;;;;;;116.82;71.72;;;230.60;2252.80;;;;;;4974255;28;20042;-62
2022/12/07 07:48:29;;;;;;;176.35;95.97;;;230.70;2252.80;;;;;;4974208;28;20401;-56
2022/12/07 07:50:54;;;;;;;137.50;71.18;;;230.80;2252.80;;;;;;4974400;28;20554;-63
2022/12/07 07:53:20;;;;;;;133.55;74.00;;;230.70;2252.80;;;;;;4974146;28;20037;-54
2022/12/07 07:55:53;;;;;;;180.07;115.68;;;230.70;2252.80;;;;;;4974411;28;20078;-58
2022/12/07 07:58:19;;;;;;;133.02;78.38;;;230.70;2252.80;;;;;;4974263;28;20037;-56
2022/12/07 08:00:45;;;;;;;184.82;112.03;;;230.70;2252.80;;;;;;4974292;28;20031;-58
2022/12/07 08:03:10;;;;;;;195.32;109.68;;;230.70;2252.80;;;;;;4973935;28;20031;-58
2022/12/07 08:05:37;;;;;;;165.27;109.95;;;230.70;2252.80;;;;;;4973958;28;20465;-58
2022/12/07 08:08:03;;;;;;;174.57;108.82;;;230.70;2252.80;;;;;;4973749;28;20062;-57
2022/12/07 08:10:29;;;;;;;196.00;118.93;;;230.70;2252.80;;;;;;4973703;28;20073;-56
2022/12/07 08:15:41;;;;;;;149.10;86.85;;;230.70;2252.80;;;;;;4974029;28;20054;-58
2022/12/07 08:18:07;;;;;;;169.05;98.68;;;230.70;2252.80;;;;;;4973919;28;20066;-55
2022/12/07 08:20:34;;;;;;;151.90;93.82;;;230.80;2252.80;;;;;;4973541;28;20078;-54
2022/12/07 08:23:00;;;;;;;97.50;62.72;;;230.90;2252.80;;;;;;4973591;28;20098;-57
2022/12/07 08:25:27;;;;;;;98.72;59.97;;;230.80;2252.80;;;;;;4973584;28;20022;-58
2022/12/07 08:27:53;;;;;;;107.18;66.15;;;230.90;2252.80;;;;;;4973540;28;20042;-55
2022/12/07 08:30:20;;;;;;;111.82;63.10;;;230.90;2252.80;;;;;;4973437;28;20034;-56
2022/12/07 08:32:46;;;;;;;118.03;73.93;;;231.00;2252.80;;;;;;4973483;28;20027;-58
2022/12/07 08:35:12;;;;;;;110.40;65.43;;;230.90;1894.40;;;;;;4973157;28;20115;-57
2022/12/07 08:37:38;;;;;;;95.10;62.00;;;231.00;2252.80;;;;;;4973721;28;20039;-58
2022/12/07 08:40:06;;;;;;;87.70;52.72;;;231.00;2252.80;;;;;;4973542;28;20045;-55
2022/12/07 08:42:37;;;;;;;95.32;52.80;;;231.00;2252.80;;;;;;4973214;28;20027;-55
2022/12/07 08:45:08;;;;;;;89.13;48.65;;;231.00;1945.60;;;;;;4973128;28;20069;-55
2022/12/07 08:47:41;;;;;;;87.63;47.30;;;230.90;2252.80;;;;;;4973319;28;20031;-57
2022/12/07 08:50:09;;;;;;;85.38;47.28;;;231.00;2252.80;;;;;;4972426;28;20109;-58
2022/12/07 08:52:36;;;;;;;66.97;38.13;;;230.90;2252.80;;;;;;4973144;28;20027;-56
2022/12/07 08:55:03;;;;;;;76.30;42.78;;;230.90;2252.80;;;;;;4973032;28;20023;-58
2022/12/07 08:57:30;;;;;;;68.00;39.10;;;230.90;2252.80;;;;;;4972718;28;20450;-58
2022/12/07 08:59:57;;;;;;;60.92;34.03;;;230.90;2252.80;;;;;;4973037;28;20413;-58
2022/12/07 09:02:23;;;;;;;327.27;210.05;;;230.90;2252.80;;;;;;4972818;28;20027;-53
2022/12/07 09:04:49;;;;;;;88.50;53.83;;;231.00;2048.00;;;;;;4972849;28;20029;-55
2022/12/07 09:07:15;;;;;;;66.78;38.03;;;230.90;2252.80;;;;;;4972732;28;20122;-55
2022/12/07 09:09:41;;;;;;;60.08;35.42;;;230.90;2252.80;;;;;;4972688;28;20378;-55
2022/12/07 09:12:07;;;;;;;49.10;31.50;;;230.90;2252.80;;;;;;4973010;28;20031;-54
2022/12/07 09:14:33;;;;;;;74.53;50.17;;;230.90;2176.00;;;;;;4972564;28;20077;-58
2022/12/07 09:17:09;;;;;;;71.47;48.05;;;231.00;2252.80;;;;;;4972813;28;20101;-54
2022/12/07 09:19:35;;;;;;;145.50;105.47;;;231.20;2252.80;;;;;;4972872;28;20023;-58
2022/12/07 09:22:01;;;;;;;94.22;64.90;;;231.20;2252.80;;;;;;4972651;28;20074;-58
2022/12/07 09:24:26;;;;;;;105.43;71.10;;;231.10;2252.80;;;;;;4972574;28;20027;-58
2022/12/07 09:26:52;;;;;;;142.07;114.60;;;231.20;2252.80;;;;;;4972455;28;20062;-57
2022/12/07 09:29:18;;;;;;;102.10;65.70;;;231.30;2252.80;;;;;;4972806;28;20484;-57
2022/12/07 09:31:43;;;;;;;90.60;67.05;;;231.30;2252.80;;;;;;4972227;28;20023;-56
2022/12/07 09:34:09;;;;;;;75.47;47.35;;;256.10;2252.80;;;;;;4972353;28;20163;-58
2022/12/07 09:36:35;;;;;;;58.10;41.75;;;256.10;2252.80;;;;;;4972400;28;20042;-59
2022/12/07 09:39:01;;;;;;;91.07;66.97;;;256.10;2252.80;;;;;;4972385;28;20485;-55
2022/12/07 09:41:29;;;;;;;56.38;40.85;;;256.10;2252.80;;;;;;4972583;28;20102;-61
2022/12/07 09:44:03;;;;;;;71.25;45.55;;;256.10;2252.80;;;;;;4972498;28;20114;-60
2022/12/07 09:46:34;;;;;;;76.18;44.38;;;256.10;2252.80;;;;;;4972027;28;20034;-58
2022/12/07 09:49:00;;;;;;;86.53;52.72;;;231.30;2252.80;;;;;;4972253;28;20034;-58
2022/12/07 09:51:26;;;;;;;77.35;45.63;;;231.30;2252.80;;;;;;4972352;28;20034;-59
2022/12/07 09:53:54;;;;;;;68.65;46.95;;;231.10;2252.80;;;;;;4972011;28;20027;-55
2022/12/07 09:56:21;;;;;;;69.20;47.58;;;231.30;2252.80;;;;;;4971987;28;20039;-55
2022/12/07 09:58:48;;;;;;;74.32;49.55;;;231.20;2252.80;;;;;;4977680;28;20027;-55
2022/12/07 10:01:16;;;;;;;81.95;51.45;;;231.30;2252.80;;;;;;4978856;28;20109;-58
2022/12/07 10:04:10;;;;;;;55.80;36.45;;;231.30;2252.80;;;;;;4981070;28;20447;-59
2022/12/07 10:06:36;;;;;;;74.00;51.95;;;231.10;2252.80;;;;;;4980009;28;20389;-56
2022/12/07 10:09:08;;;;;;;64.82;47.88;;;231.00;2252.80;;;;;;4979104;28;20026;-59
2022/12/07 10:11:33;;;;;;;56.22;37.97;;;231.10;2252.80;;;;;;4972697;28;20077;-57
2022/12/07 10:14:12;;;;;;;71.30;44.90;;;231.00;2252.80;;;;;;4971504;28;20022;-58
2022/12/07 10:16:40;;;;;;;68.75;43.88;;;231.00;2252.80;;;;;;4971593;28;20031;-60
2022/12/07 10:19:25;;;;;;;72.85;47.35;;;231.20;2252.80;;;;;;4971510;28;20081;-59
2022/12/07 10:22:10;;;;;;;70.50;49.40;;;231.30;2252.80;;;;;;4971483;28;20374;-59
2022/12/07 10:24:39;;;;;;;67.28;40.13;;;231.30;2252.80;;;;;;4971609;28;20370;-58
2022/12/07 10:27:08;;;;;;;66.82;43.65;;;231.10;2252.80;;;;;;4971297;28;20050;-60
2022/12/07 10:29:38;;;;;;;84.20;57.28;;;231.00;2252.80;;;;;;4954170;28;20030;-57
2022/12/07 10:32:14;;;;;;;89.82;55.10;;;231.00;2252.80;;;;;;4971290;28;20478;-56
2022/12/07 10:34:40;;;;;;;87.53;53.00;;;230.90;2252.80;;;;;;4971275;28;20118;-59
2022/12/07 10:37:15;;;;;;;72.95;45.08;;;230.90;2252.80;;;;;;4971412;28;20161;-59
2022/12/07 10:39:52;;;;;;;99.95;64.68;;;230.90;2252.80;;;;;;4971265;28;20031;-60
2022/12/07 10:42:25;;;;;;;75.80;50.08;;;230.90;2252.80;;;;;;4971576;28;20026;-60
2022/12/07 10:45:15;;;;;;;76.00;46.33;;;230.70;2252.80;;;;;;4971151;28;20027;-60
2022/12/07 10:47:46;;;;;;;84.88;54.90;;;230.70;2252.80;;;;;;4971035;28;20043;-59
2022/12/07 10:50:30;;;;;;;88.85;54.10;;;230.60;2252.80;;;;;;4979020;28;20053;-59
2022/12/07 10:53:44;;;;;;;95.55;56.65;;;230.90;2252.80;;;;;;4990571;28;20500;-55
2022/12/07 10:56:28;;;;;;;82.90;51.70;;;231.00;2252.80;;;;;;4990430;28;20042;-59
2022/12/07 10:59:13;;;;;;;75.65;49.42;;;230.90;2252.80;;;;;;4990740;28;20359;-59
2022/12/07 11:01:57;;;;;;;82.65;50.15;;;230.90;2252.80;;;;;;4990594;28;20037;-55
2022/12/07 11:04:59;;;;;;;103.88;63.42;;;231.10;2124.80;;;;;;4990266;28;20057;-55
2022/12/07 11:08:05;;;;;;;116.75;70.25;;;231.10;2252.80;;;;;;4990375;28;20034;-58
2022/12/07 11:10:46;;;;;;;102.20;66.05;;;231.10;2073.60;;;;;;4990334;28;20030;-55
2022/12/07 11:13:32;;;;;;;70.97;48.72;;;231.20;2252.80;;;;;;4991973;28;20026;-56
2022/12/07 11:16:21;;;;;;;75.13;46.92;;;231.00;2252.80;;;;;;4994470;28;20528;-59
2022/12/07 11:19:18;;;;;;;89.63;60.13;;;231.00;2252.80;;;;;;4994490;28;20041;-55
2022/12/07 11:22:00;;;;;;;96.22;61.88;;;231.10;2252.80;;;;;;4994322;28;20029;-55
2022/12/07 11:24:34;;;;;;;111.25;72.47;;;231.10;2252.80;;;;;;4994213;28;20477;-59
2022/12/07 11:27:47;;;;;;;86.18;54.35;;;231.30;2252.80;;;;;;4994102;28;20477;-56
2022/12/07 11:30:34;;;;;;;70.53;48.40;;;256.00;2252.80;;;;;;4914971;29;20048;-59
2022/12/07 11:33:00;;;;;;;54.78;38.70;;;231.30;2252.80;;;;;;4914917;29;20123;-57
2022/12/07 11:35:47;;;;;;;129.27;88.70;;;231.30;2252.80;;;;;;4914926;29;20127;-59
2022/12/07 11:38:30;;;;;;;86.88;61.40;;;256.00;2252.80;;;;;;4915029;29;20036;-59
2022/12/07 11:41:12;;;;;;;58.17;39.45;;;256.10;2252.80;;;;;;4915100;29;20487;-60
2022/12/07 11:43:54;;;;;;;70.90;56.40;;;231.30;2252.80;;;;;;4915004;29;20050;-59
2022/12/07 11:46:25;;;;;;;73.13;54.17;;;231.30;2252.80;;;;;;4914832;29;20043;-55
2022/12/07 11:49:02;;;;;;;110.13;76.38;;;231.30;2252.80;;;;;;4914798;29;20448;-58
2022/12/07 11:51:31;;;;;;;130.50;95.72;;;231.30;2252.80;;;;;;4914828;29;20032;-59
2022/12/07 11:54:02;;;;;;;118.07;88.50;;;231.30;2252.80;;;;;;4914760;29;20040;-58
2022/12/07 11:56:30;;;;;;;61.65;44.05;;;231.30;2252.80;;;;;;4914592;29;20146;-59
2022/12/07 11:59:15;;;;;;;51.50;35.42;;;256.00;2252.80;;;;;;4914778;29;20035;-59
2022/12/07 12:02:02;;;;;;;47.75;34.25;;;256.00;2252.80;;;;;;4965809;28;20031;-59
2022/12/07 12:04:52;;;;;;;65.55;43.65;;;231.30;2252.80;;;;;;4974116;28;20026;-59
2022/12/07 12:07:22;;;;;;;56.58;39.47;;;231.30;2252.80;;;;;;4974381;28;20046;-55
2022/12/07 12:10:00;;;;;;;60.60;38.90;;;231.20;2252.80;;;;;;4974169;28;20085;-59
2022/12/07 12:12:31;;;;;;;66.82;38.95;;;231.20;2252.80;;;;;;4974012;28;20027;-56